createdAt,value
2018-09-04T00:00:54.045Z,52.97
2018-09-04T00:01:54.059Z,53.19
2018-09-04T00:02:54.031Z,52.99
2018-09-04T00:03:54.015Z,52.99
2018-09-04T00:04:54.004Z,53.30
2018-09-04T00:05:53.991Z,52.77
2018-09-04T00:06:54.003Z,52.89
2018-09-04T00:07:53.971Z,53.07
2018-09-04T00:08:53.956Z,53.09
2018-09-04T00:09:53.945Z,52.97
2018-09-04T00:10:53.933Z,53.17
2018-09-04T00:11:53.947Z,52.89
2018-09-04T00:12:53.912Z,53.39
2018-09-04T00:13:53.900Z,52.97
2018-09-04T00:14:53.889Z,53.27
2018-09-04T00:15:53.877Z,53.09
2018-09-04T00:16:53.893Z,53.30
2018-09-04T00:17:53.855Z,53.30
2018-09-04T00:18:53.842Z,53.09
2018-09-04T00:19:53.835Z,53.30
2018-09-04T00:20:53.820Z,53.09
2018-09-04T00:21:53.835Z,53.19
2018-09-04T00:22:53.801Z,53.19
2018-09-04T00:23:53.788Z,53.27
2018-09-04T00:24:53.777Z,52.99
2018-09-04T00:25:53.767Z,53.19
2018-09-04T00:26:53.756Z,52.97
2018-09-04T00:27:53.767Z,53.19
2018-09-04T00:28:53.731Z,53.39
2018-09-04T00:29:53.720Z,53.19
2018-09-04T00:30:53.710Z,53.09
2018-09-04T00:31:53.701Z,53.19
2018-09-04T00:32:53.713Z,52.99
2018-09-04T00:33:53.676Z,53.09
2018-09-04T00:34:53.667Z,53.17
2018-09-04T00:35:53.654Z,53.27
2018-09-04T00:36:53.645Z,52.99
2018-09-04T00:37:53.655Z,53.09
2018-09-04T00:38:53.621Z,52.80
2018-09-04T00:39:53.613Z,53.59
2018-09-04T00:40:53.598Z,53.49
2018-09-04T00:41:53.590Z,53.59
2018-09-04T00:42:53.602Z,53.19
2018-09-04T00:43:53.565Z,53.59
2018-09-04T00:44:53.555Z,53.49
2018-09-04T00:45:53.543Z,53.69
2018-09-04T00:46:53.535Z,53.49
2018-09-04T00:47:53.546Z,53.69
2018-09-04T00:48:53.509Z,53.79
2018-09-04T00:49:53.498Z,53.09
2018-09-04T00:50:53.486Z,53.99
2018-09-04T00:51:53.478Z,53.69
2018-09-04T00:52:53.492Z,53.79
2018-09-04T00:53:53.453Z,53.69
2018-09-04T00:54:53.442Z,53.79
2018-09-04T00:55:53.431Z,53.89
2018-09-04T00:56:53.421Z,53.59
2018-09-04T00:57:53.436Z,53.49
2018-09-04T00:58:53.462Z,53.89
2018-09-04T00:59:53.386Z,53.99
2018-09-04T01:00:53.375Z,53.89
2018-09-04T01:01:53.365Z,53.49
2018-09-04T01:02:53.378Z,53.59
2018-09-04T01:03:53.341Z,53.77
2018-09-04T01:04:53.332Z,53.79
2018-09-04T01:05:53.320Z,53.59
2018-09-04T01:06:53.309Z,53.99
2018-09-04T01:07:53.323Z,53.99
2018-09-04T01:08:53.288Z,53.79
2018-09-04T01:09:53.279Z,53.89
2018-09-04T01:10:53.266Z,53.89
2018-09-04T01:11:53.255Z,53.59
2018-09-04T01:12:53.267Z,53.99
2018-09-04T01:13:53.236Z,53.99
2018-09-04T01:14:53.220Z,53.59
2018-09-04T01:15:53.215Z,53.59
2018-09-04T01:16:53.199Z,53.49
2018-09-04T01:17:53.211Z,53.89
2018-09-04T01:18:53.175Z,53.89
2018-09-04T01:19:53.166Z,53.79
2018-09-04T01:20:53.154Z,53.89
2018-09-04T01:21:53.143Z,53.79
2018-09-04T01:22:53.161Z,53.89
2018-09-04T01:23:53.126Z,53.49
2018-09-04T01:24:53.108Z,53.49
2018-09-04T01:25:53.099Z,53.59
2018-09-04T01:26:53.087Z,53.39
2018-09-04T01:27:53.100Z,53.59
2018-09-04T01:28:53.065Z,53.59
2018-09-04T01:29:53.053Z,53.59
2018-09-04T01:30:53.042Z,53.59
2018-09-04T01:31:53.030Z,53.69
2018-09-04T01:32:53.051Z,53.69
2018-09-04T01:33:53.011Z,53.69
2018-09-04T01:34:52.997Z,53.69
2018-09-04T01:35:52.986Z,53.49
2018-09-04T01:36:52.975Z,53.39
2018-09-04T01:37:52.990Z,53.59
2018-09-04T01:38:52.952Z,53.69
2018-09-04T01:39:52.945Z,53.59
2018-09-04T01:40:52.930Z,53.49
2018-09-04T01:41:52.923Z,53.59
2018-09-04T01:42:52.934Z,53.39
2018-09-04T01:43:52.897Z,53.39
2018-09-04T01:44:52.888Z,53.49
2018-09-04T01:45:52.877Z,53.30
2018-09-04T01:46:52.866Z,53.49
2018-09-04T01:47:52.879Z,53.49
2018-09-04T01:48:52.842Z,53.39
2018-09-04T01:49:52.831Z,53.79
2018-09-04T01:50:52.820Z,53.79
2018-09-04T01:51:52.810Z,53.42
2018-09-04T01:52:52.823Z,53.52
2018-09-04T01:53:52.788Z,53.49
2018-09-04T01:54:52.776Z,53.92
2018-09-04T01:55:52.766Z,54.39
2018-09-04T01:56:52.754Z,53.82
2018-09-04T01:57:52.766Z,53.92
2018-09-04T01:58:52.731Z,53.82
2018-09-04T01:59:52.722Z,53.49
2018-09-04T02:00:52.709Z,53.42
2018-09-04T02:01:52.698Z,53.42
2018-09-04T02:02:52.713Z,53.32
2018-09-04T02:03:52.677Z,53.92
2018-09-04T02:04:52.666Z,53.32
2018-09-04T02:05:52.653Z,53.82
2018-09-04T02:06:52.642Z,53.82
2018-09-04T02:07:52.634Z,53.89
2018-09-04T02:08:52.644Z,54.12
2018-09-04T02:09:52.608Z,53.92
2018-09-04T02:10:52.597Z,54.22
2018-09-04T02:11:52.586Z,54.12
2018-09-04T02:12:52.576Z,54.42
2018-09-04T02:13:52.590Z,54.39
2018-09-04T02:14:52.555Z,54.42
2018-09-04T02:15:52.542Z,54.12
2018-09-04T02:16:52.532Z,53.82
2018-09-04T02:17:52.523Z,54.12
2018-09-04T02:18:52.534Z,54.32
2018-09-04T02:19:52.497Z,54.22
2018-09-04T02:20:52.488Z,54.22
2018-09-04T02:21:52.476Z,54.22
2018-09-04T02:22:52.468Z,54.52
2018-09-04T02:23:52.478Z,54.22
2018-09-04T02:24:52.443Z,54.12
2018-09-04T02:25:52.431Z,54.32
2018-09-04T02:26:52.420Z,54.52
2018-09-04T02:27:52.413Z,54.12
2018-09-04T02:28:52.423Z,54.42
2018-09-04T02:29:52.387Z,54.52
2018-09-04T02:30:52.376Z,54.22
2018-09-04T02:31:52.366Z,54.62
2018-09-04T02:32:52.357Z,54.42
2018-09-04T02:33:52.367Z,54.52
2018-09-04T02:34:52.332Z,54.22
2018-09-04T02:35:52.320Z,54.52
2018-09-04T02:36:52.310Z,54.42
2018-09-04T02:37:52.298Z,54.52
2018-09-04T02:38:52.312Z,54.52
2018-09-04T02:39:52.278Z,54.72
2018-09-04T02:40:52.267Z,54.72
2018-09-04T02:41:52.254Z,54.62
2018-09-04T02:42:52.245Z,54.12
2018-09-04T02:43:52.256Z,54.42
2018-09-04T02:44:52.220Z,54.22
2018-09-04T02:45:52.209Z,54.52
2018-09-04T02:46:52.198Z,54.72
2018-09-04T02:47:52.187Z,54.12
2018-09-04T02:48:52.200Z,54.42
2018-09-04T02:49:52.168Z,54.22
2018-09-04T02:50:52.160Z,54.62
2018-09-04T02:51:52.143Z,54.22
2018-09-04T02:52:52.143Z,54.42
2018-09-04T02:53:52.145Z,55.02
2018-09-04T02:54:52.110Z,54.55
2018-09-04T02:55:52.098Z,54.74
2018-09-04T02:56:52.088Z,54.82
2018-09-04T02:57:52.078Z,54.74
2018-09-04T02:58:52.090Z,54.72
2018-09-04T02:59:52.054Z,54.55
2018-09-04T03:00:52.045Z,54.85
2018-09-04T03:01:52.033Z,55.02
2018-09-04T03:02:52.021Z,54.44
2018-09-04T03:03:52.035Z,55.05
2018-09-04T03:04:52.002Z,54.35
2018-09-04T03:05:51.988Z,55.02
2018-09-04T03:06:51.976Z,54.72
2018-09-04T03:07:51.967Z,54.72
2018-09-04T03:08:51.979Z,54.85
2018-09-04T03:09:51.944Z,54.62
2018-09-04T03:10:51.932Z,55.15
2018-09-04T03:11:51.922Z,55.12
2018-09-04T03:12:51.910Z,54.74
2018-09-04T03:13:52.006Z,54.94
2018-09-04T03:14:51.887Z,54.72
2018-09-04T03:15:51.881Z,54.82
2018-09-04T03:16:51.866Z,55.05
2018-09-04T03:17:51.855Z,54.74
2018-09-04T03:18:51.867Z,55.05
2018-09-04T03:19:51.835Z,55.12
2018-09-04T03:20:51.821Z,54.85
2018-09-04T03:21:51.810Z,54.44
2018-09-04T03:22:51.797Z,54.55
2018-09-04T03:23:51.813Z,54.55
2018-09-04T03:24:51.776Z,54.74
2018-09-04T03:25:51.766Z,54.55
2018-09-04T03:26:51.756Z,55.15
2018-09-04T03:27:51.743Z,55.15
2018-09-04T03:28:51.757Z,54.55
2018-09-04T03:29:51.723Z,54.55
2018-09-04T03:30:51.717Z,54.35
2018-09-04T03:31:51.699Z,54.24
2018-09-04T03:32:51.688Z,54.55
2018-09-04T03:33:51.702Z,54.44
2018-09-04T03:34:51.665Z,54.35
2018-09-04T03:35:51.654Z,54.24
2018-09-04T03:36:51.643Z,54.55
2018-09-04T03:37:51.632Z,54.64
2018-09-04T03:38:51.644Z,54.44
2018-09-04T03:39:51.611Z,54.55
2018-09-04T03:40:51.601Z,54.55
2018-09-04T03:41:51.587Z,54.55
2018-09-04T03:42:51.577Z,54.44
2018-09-04T03:43:51.592Z,54.44
2018-09-04T03:44:51.554Z,54.55
2018-09-04T03:45:51.563Z,54.64
2018-09-04T03:46:51.532Z,54.85
2018-09-04T03:47:51.521Z,54.55
2018-09-04T03:48:51.512Z,55.05
2018-09-04T03:49:51.523Z,54.44
2018-09-04T03:50:51.487Z,54.64
2018-09-04T03:51:51.476Z,54.64
2018-09-04T03:52:51.467Z,54.35
2018-09-04T03:53:51.457Z,54.44
2018-09-04T03:54:51.466Z,54.55
2018-09-04T03:55:51.431Z,54.55
2018-09-04T03:56:51.421Z,54.44
2018-09-04T03:57:51.409Z,54.35
2018-09-04T03:58:51.400Z,54.55
2018-09-04T03:59:51.411Z,54.44
2018-09-04T04:00:51.379Z,54.64
2018-09-04T04:01:51.367Z,54.35
2018-09-04T04:02:51.356Z,54.55
2018-09-04T04:03:51.370Z,54.44
2018-09-04T04:04:51.358Z,54.64
2018-09-04T04:05:51.320Z,54.74
2018-09-04T04:06:51.311Z,54.24
2018-09-04T04:07:51.301Z,54.74
2018-09-04T04:08:51.288Z,54.24
2018-09-04T04:09:51.305Z,54.35
2018-09-04T04:10:51.268Z,54.35
2018-09-04T04:11:51.297Z,54.44
2018-09-04T04:12:51.243Z,54.55
2018-09-04T04:13:51.231Z,54.55
2018-09-04T04:14:51.243Z,54.44
2018-09-04T04:15:51.211Z,54.64
2018-09-04T04:16:51.204Z,54.64
2018-09-04T04:17:51.186Z,54.57
2018-09-04T04:18:51.179Z,54.55
2018-09-04T04:19:51.190Z,54.44
2018-09-04T04:20:51.153Z,54.44
2018-09-04T04:21:51.141Z,54.55
2018-09-04T04:22:51.130Z,54.74
2018-09-04T04:23:51.186Z,54.55
2018-09-04T04:24:51.133Z,54.24
2018-09-04T04:25:51.097Z,54.85
2018-09-04T04:26:51.085Z,54.44
2018-09-04T04:27:51.076Z,54.44
2018-09-04T04:28:51.065Z,54.55
2018-09-04T04:29:51.076Z,54.74
2018-09-04T04:30:51.041Z,54.35
2018-09-04T04:31:51.031Z,54.35
2018-09-04T04:32:51.019Z,54.64
2018-09-04T04:33:51.007Z,54.57
2018-09-04T04:34:50.998Z,54.57
2018-09-04T04:35:51.012Z,54.44
2018-09-04T04:36:50.974Z,54.44
2018-09-04T04:37:50.964Z,54.44
2018-09-04T04:38:50.953Z,54.55
2018-09-04T04:39:50.984Z,54.74
2018-09-04T04:40:50.931Z,54.57
2018-09-04T04:41:50.918Z,54.55
2018-09-04T04:42:50.907Z,54.57
2018-09-04T04:43:50.895Z,54.47
2018-09-04T04:44:50.888Z,54.47
2018-09-04T04:45:50.898Z,54.44
2018-09-04T04:46:50.864Z,54.87
2018-09-04T04:47:50.912Z,54.57
2018-09-04T04:48:50.841Z,54.57
2018-09-04T04:49:50.832Z,54.37
2018-09-04T04:50:50.843Z,54.64
2018-09-04T04:51:50.807Z,54.44
2018-09-04T04:52:50.799Z,54.37
2018-09-04T04:53:50.786Z,54.57
2018-09-04T04:54:50.777Z,54.44
2018-09-04T04:55:50.790Z,54.57
2018-09-04T04:56:50.754Z,54.57
2018-09-04T04:57:50.740Z,54.67
2018-09-04T04:58:50.731Z,54.77
2018-09-04T04:59:50.722Z,54.37
2018-09-04T05:00:50.732Z,54.87
2018-09-04T05:01:50.696Z,54.44
2018-09-04T05:02:50.730Z,54.44
2018-09-04T05:03:50.673Z,54.44
2018-09-04T05:04:50.665Z,54.44
2018-09-04T05:05:50.688Z,54.67
2018-09-04T05:06:50.640Z,55.05
2018-09-04T05:07:50.629Z,55.05
2018-09-04T05:08:50.617Z,55.17
2018-09-04T05:09:50.607Z,54.85
2018-09-04T05:10:50.620Z,54.94
2018-09-04T05:11:50.586Z,55.05
2018-09-04T05:12:50.582Z,54.35
2018-09-04T05:13:50.563Z,55.05
2018-09-04T05:14:50.551Z,54.74
2018-09-04T05:15:50.565Z,54.77
2018-09-04T05:16:50.528Z,55.05
2018-09-04T05:17:50.519Z,54.35
2018-09-04T05:18:50.507Z,54.97
2018-09-04T05:19:50.497Z,54.64
2018-09-04T05:20:50.511Z,54.85
2018-09-04T05:21:50.472Z,54.44
2018-09-04T05:22:50.465Z,54.94
2018-09-04T05:23:50.451Z,54.55
2018-09-04T05:24:50.441Z,55.05
2018-09-04T05:25:50.452Z,54.74
2018-09-04T05:26:50.418Z,54.55
2018-09-04T05:27:50.409Z,54.74
2018-09-04T05:28:50.396Z,54.24
2018-09-04T05:29:50.386Z,54.57
2018-09-04T05:30:50.398Z,54.57
2018-09-04T05:31:50.365Z,54.24
2018-09-04T05:32:50.350Z,55.05
2018-09-04T05:33:50.340Z,54.94
2018-09-04T05:34:50.328Z,54.35
2018-09-04T05:35:50.341Z,54.55
2018-09-04T05:36:50.396Z,61.38
2018-09-04T05:37:50.295Z,61.31
2018-09-04T05:38:50.283Z,61.84
2018-09-04T05:39:50.277Z,63.04
2018-09-04T05:40:50.288Z,63.31
2018-09-04T05:41:50.250Z,63.40
2018-09-04T05:42:50.240Z,64.34
2018-09-04T05:43:50.230Z,65.14
2018-09-04T05:44:50.216Z,64.67
2018-09-04T05:45:50.231Z,66.28
2018-09-04T05:46:50.201Z,66.47
2018-09-04T05:47:50.183Z,65.88
2018-09-04T05:48:50.173Z,66.61
2018-09-04T05:49:50.162Z,66.17
2018-09-04T05:50:50.173Z,66.28
2018-09-04T05:51:50.141Z,66.58
2018-09-04T05:52:50.127Z,67.31
2018-09-04T05:53:50.116Z,67.51
2018-09-04T05:54:50.105Z,67.71
2018-09-04T05:55:50.118Z,68.21
2018-09-04T05:56:50.084Z,68.52
2018-09-04T05:57:50.072Z,69.06
2018-09-04T05:58:50.060Z,69.15
2018-09-04T05:59:50.052Z,69.89
2018-09-04T06:00:50.063Z,70.29
2018-09-04T06:01:50.036Z,70.70
2018-09-04T06:02:50.016Z,71.80
2018-09-04T06:03:50.005Z,71.40
2018-09-04T06:04:49.992Z,71.09
2018-09-04T06:05:50.007Z,71.50
2018-09-04T06:06:49.974Z,71.90
2018-09-04T06:07:49.960Z,72.00
2018-09-04T06:08:49.948Z,71.90
2018-09-04T06:09:49.939Z,72.61
2018-09-04T06:10:49.953Z,72.00
2018-09-04T06:11:49.914Z,72.10
2018-09-04T06:12:49.904Z,72.61
2018-09-04T06:13:50.023Z,72.61
2018-09-04T06:14:49.886Z,72.00
2018-09-04T06:15:49.895Z,72.50
2018-09-04T06:16:49.860Z,72.10
2018-09-04T06:17:49.849Z,73.00
2018-09-04T06:18:49.841Z,72.41
2018-09-04T06:19:49.864Z,72.10
2018-09-04T06:20:49.839Z,72.54
2018-09-04T06:21:49.806Z,73.14
2018-09-04T06:22:49.792Z,72.94
2018-09-04T06:23:49.782Z,73.14
2018-09-04T06:24:49.771Z,73.61
2018-09-04T06:25:49.762Z,73.51
2018-09-04T06:26:49.771Z,72.81
2018-09-04T06:27:49.737Z,73.21
2018-09-04T06:28:49.727Z,73.31
2018-09-04T06:29:49.715Z,73.11
2018-09-04T06:30:49.710Z,72.50
2018-09-04T06:31:49.717Z,73.61
2018-09-04T06:32:49.681Z,73.81
2018-09-04T06:33:49.672Z,74.72
2018-09-04T06:34:49.659Z,77.43
2018-09-04T06:35:49.649Z,75.82
2018-09-04T06:36:49.742Z,77.63
2018-09-04T06:37:49.627Z,77.83
2018-09-04T06:38:49.615Z,77.33
2018-09-04T06:39:49.606Z,78.14
2018-09-04T06:40:49.594Z,77.87
2018-09-04T06:41:49.608Z,78.74
2018-09-04T06:42:49.572Z,79.54
2018-09-04T06:43:49.560Z,79.04
2018-09-04T06:44:49.548Z,79.28
2018-09-04T06:45:49.539Z,79.04
2018-09-04T06:46:49.550Z,78.44
2018-09-04T06:47:49.514Z,78.74
2018-09-04T06:48:49.504Z,79.04
2018-09-04T06:49:49.494Z,79.35
2018-09-04T06:50:49.546Z,79.04
2018-09-04T06:51:49.494Z,79.71
2018-09-04T06:52:49.461Z,79.91
2018-09-04T06:53:49.449Z,80.35
2018-09-04T06:54:49.436Z,79.24
2018-09-04T06:55:49.425Z,79.44
2018-09-04T06:56:49.438Z,79.14
2018-09-04T06:57:49.477Z,78.94
2018-09-04T06:58:49.392Z,77.70
2018-09-04T06:59:49.380Z,78.90
2018-09-04T07:00:49.370Z,75.59
2018-09-04T07:01:49.383Z,73.24
2018-09-04T07:02:49.348Z,73.84
2018-09-04T07:03:49.336Z,77.56
2018-09-04T07:04:49.328Z,78.77
2018-09-04T07:05:49.317Z,77.56
2018-09-04T07:06:49.327Z,78.16
2018-09-04T07:07:49.291Z,77.42
2018-09-04T07:08:49.280Z,77.22
2018-09-04T07:09:49.268Z,77.02
2018-09-04T07:10:49.257Z,75.92
2018-09-04T07:11:49.270Z,77.12
2018-09-04T07:12:49.236Z,76.48
2018-09-04T07:13:49.224Z,76.72
2018-09-04T07:14:49.213Z,77.32
2018-09-04T07:15:49.201Z,75.08
2018-09-04T07:16:49.216Z,75.27
2018-09-04T07:17:49.179Z,73.77
2018-09-04T07:18:49.174Z,73.87
2018-09-04T07:19:49.157Z,74.48
2018-09-04T07:20:49.145Z,74.18
2018-09-04T07:21:49.158Z,75.08
2018-09-04T07:22:49.123Z,74.07
2018-09-04T07:23:49.112Z,73.77
2018-09-04T07:24:49.101Z,73.87
2018-09-04T07:25:49.089Z,74.07
2018-09-04T07:26:49.102Z,74.18
2018-09-04T07:27:49.067Z,74.18
2018-09-04T07:28:49.057Z,73.97
2018-09-04T07:29:49.048Z,73.57
2018-09-04T07:30:49.035Z,73.84
2018-09-04T07:31:49.047Z,73.44
2018-09-04T07:32:49.011Z,73.54
2018-09-04T07:33:49.000Z,73.24
2018-09-04T07:34:48.990Z,73.64
2018-09-04T07:35:48.979Z,74.34
2018-09-04T07:36:48.991Z,73.67
2018-09-04T07:37:48.955Z,73.27
2018-09-04T07:38:48.944Z,73.84
2018-09-04T07:39:48.934Z,73.54
2018-09-04T07:40:48.922Z,74.64
2018-09-04T07:41:48.967Z,73.84
2018-09-04T07:42:48.909Z,74.24
2018-09-04T07:43:48.891Z,73.84
2018-09-04T07:44:48.877Z,74.14
2018-09-04T07:45:48.867Z,74.34
2018-09-04T07:46:48.880Z,74.14
2018-09-04T07:47:48.844Z,74.24
2018-09-04T07:48:48.832Z,73.84
2018-09-04T07:49:48.824Z,73.94
2018-09-04T07:50:48.810Z,75.04
2018-09-04T07:51:49.280Z,75.45
2018-09-04T07:52:48.789Z,75.24
2018-09-04T07:53:48.849Z,73.94
2018-09-04T07:54:48.767Z,74.04
2018-09-04T07:55:48.754Z,74.04
2018-09-04T07:56:48.788Z,73.94
2018-09-04T07:57:48.732Z,73.64
2018-09-04T07:58:48.720Z,74.04
2018-09-04T07:59:48.709Z,73.80
2018-09-04T08:00:48.723Z,72.60
2018-09-04T08:01:48.714Z,73.20
2018-09-04T08:02:48.676Z,73.16
2018-09-04T08:03:48.666Z,73.07
2018-09-04T08:04:48.654Z,73.90
2018-09-04T08:05:48.647Z,73.70
2018-09-04T08:06:48.655Z,74.07
2018-09-04T08:07:48.623Z,74.10
2018-09-04T08:08:48.610Z,73.80
2018-09-04T08:09:48.611Z,74.17
2018-09-04T08:10:48.594Z,73.97
2018-09-04T08:11:48.580Z,73.57
2018-09-04T08:12:48.589Z,74.27
2018-09-04T08:13:48.556Z,73.27
2018-09-04T08:14:48.545Z,72.36
2018-09-04T08:15:48.536Z,72.66
2018-09-04T08:16:48.532Z,73.36
2018-09-04T08:17:48.562Z,72.77
2018-09-04T08:18:48.501Z,72.13
2018-09-04T08:19:48.488Z,72.53
2018-09-04T08:20:48.498Z,72.16
2018-09-04T08:21:48.467Z,71.83
2018-09-04T08:22:48.479Z,71.43
2018-09-04T08:23:48.443Z,71.63
2018-09-04T08:24:48.431Z,71.53
2018-09-04T08:25:48.425Z,70.39
2018-09-04T08:26:48.412Z,69.99
2018-09-04T08:27:48.422Z,69.39
2018-09-04T08:28:48.387Z,68.76
2018-09-04T08:29:48.376Z,68.99
2018-09-04T08:30:48.364Z,69.56
2018-09-04T08:31:48.354Z,70.46
2018-09-04T08:32:48.391Z,70.26
2018-09-04T08:33:48.332Z,70.16
2018-09-04T08:34:48.320Z,70.26
2018-09-04T08:35:48.309Z,69.56
2018-09-04T08:36:48.301Z,69.36
2018-09-04T08:37:48.313Z,69.32
2018-09-04T08:38:48.276Z,68.93
2018-09-04T08:39:48.265Z,68.82
2018-09-04T08:40:48.254Z,69.23
2018-09-04T08:41:48.256Z,68.82
2018-09-04T08:42:48.259Z,68.82
2018-09-04T08:43:48.220Z,68.62
2018-09-04T08:44:48.209Z,69.09
2018-09-04T08:45:48.200Z,68.32
2018-09-04T08:46:48.188Z,68.29
2018-09-04T08:47:48.251Z,69.19
2018-09-04T08:48:48.166Z,68.19
2018-09-04T08:49:48.154Z,68.79
2018-09-04T08:50:48.145Z,68.59
2018-09-04T08:51:48.134Z,68.19
2018-09-04T08:52:48.147Z,67.89
2018-09-04T08:53:48.112Z,67.89
2018-09-04T08:54:48.099Z,67.69
2018-09-04T08:55:48.090Z,67.69
2018-09-04T08:56:48.079Z,67.59
2018-09-04T08:57:48.091Z,67.59
2018-09-04T09:01:00.313Z,67.99
2018-09-04T09:02:00.282Z,68.06
2018-09-04T09:03:00.293Z,67.66
2018-09-04T09:04:00.261Z,67.09
2018-09-04T09:05:00.246Z,67.06
2018-09-04T09:06:00.235Z,67.36
2018-09-04T09:07:00.227Z,66.36
2018-09-04T09:08:00.237Z,67.06
2018-09-04T09:09:00.204Z,66.16
2018-09-04T09:10:00.252Z,66.16
2018-09-04T09:11:00.180Z,66.33
2018-09-04T09:12:00.174Z,66.93
2018-09-04T09:13:00.178Z,66.43
2018-09-04T09:14:00.146Z,66.93
2018-09-04T09:15:00.136Z,67.13
2018-09-04T09:16:00.122Z,66.63
2018-09-04T09:17:00.112Z,66.63
2018-09-04T09:18:00.124Z,66.03
2018-09-04T09:19:00.094Z,65.63
2018-09-04T09:20:00.084Z,65.53
2018-09-04T09:21:00.074Z,65.73
2018-09-04T09:22:00.059Z,66.03
2018-09-04T09:23:00.270Z,65.13
2018-09-04T09:24:00.034Z,64.73
2018-09-04T09:25:00.023Z,65.13
2018-09-04T09:26:00.017Z,64.93
2018-09-04T09:27:00.001Z,64.43
2018-09-04T09:28:00.013Z,64.50
2018-09-04T09:28:59.979Z,64.73
2018-09-04T09:29:59.967Z,64.60
2018-09-04T09:30:59.956Z,64.30
2018-09-04T09:31:59.945Z,64.20
2018-09-04T09:32:59.960Z,64.10
2018-09-04T09:33:59.924Z,63.80
2018-09-04T09:34:59.968Z,64.10
2018-09-04T09:35:59.901Z,63.97
2018-09-04T09:36:59.977Z,63.07
2018-09-04T09:37:59.899Z,63.37
2018-09-04T09:38:59.864Z,63.27
2018-09-04T09:39:59.855Z,62.67
2018-09-04T09:40:59.843Z,63.77
2018-09-04T09:41:59.832Z,64.07
2018-09-04T09:42:59.843Z,62.48
2018-09-04T09:43:59.810Z,62.87
2018-09-04T09:44:59.804Z,62.57
2018-09-04T09:45:59.787Z,62.54
2018-09-04T09:46:59.776Z,62.74
2018-09-04T09:48:10.573Z,62.54
2018-09-04T09:48:59.753Z,62.34
2018-09-04T09:49:59.742Z,62.34
2018-09-04T09:50:59.732Z,61.85
2018-09-04T09:51:59.719Z,62.24
2018-09-04T09:52:59.841Z,61.35
2018-09-04T09:53:59.714Z,61.61
2018-09-04T09:54:59.686Z,61.41
2018-09-04T09:55:59.675Z,61.15
2018-09-04T09:56:59.664Z,61.41
2018-09-04T09:57:59.674Z,60.52
2018-09-04T09:58:59.641Z,61.41
2018-09-04T09:59:59.726Z,60.92
2018-09-04T10:00:59.709Z,60.52
2018-09-04T10:01:59.606Z,59.99
2018-09-04T10:02:59.600Z,60.09
2018-09-04T10:03:59.698Z,60.39
2018-09-04T10:04:59.573Z,60.79
2018-09-04T10:05:59.562Z,60.39
2018-09-04T10:06:59.549Z,60.52
2018-09-04T10:07:59.640Z,61.61
2018-09-04T10:08:59.527Z,61.65
2018-09-04T10:09:59.518Z,61.61
2018-09-04T10:10:59.530Z,61.71
2018-09-04T10:11:59.496Z,61.22
2018-09-04T10:12:59.489Z,61.02
2018-09-04T10:13:59.495Z,60.62
2018-09-04T10:14:59.460Z,60.52
2018-09-04T10:16:01.037Z,60.32
2018-09-04T10:16:59.519Z,60.32
2018-09-04T10:17:59.447Z,60.12
2018-09-04T10:18:59.438Z,59.89
2018-09-04T10:19:59.488Z,59.39
2018-09-04T10:20:59.397Z,59.59
2018-09-04T10:21:59.382Z,59.36
2018-09-04T10:22:59.376Z,59.27
2018-09-04T10:23:59.414Z,59.66
2018-09-04T10:24:59.346Z,59.86
2018-09-04T10:25:59.338Z,59.36
2018-09-04T10:26:59.324Z,59.17
2018-09-04T10:27:59.316Z,58.57
2018-09-04T10:28:59.332Z,58.14
2018-09-04T10:29:59.291Z,58.04
2018-09-04T10:30:59.279Z,58.04
2018-09-04T10:31:59.267Z,57.94
2018-09-04T10:32:59.255Z,57.64
2018-09-04T10:33:59.271Z,57.94
2018-09-04T10:34:59.235Z,57.54
2018-09-04T10:35:59.222Z,57.45
2018-09-04T10:36:59.240Z,56.75
2018-09-04T10:37:59.202Z,56.92
2018-09-04T10:38:59.216Z,56.32
2018-09-04T10:39:59.222Z,56.62
2018-09-04T10:40:59.204Z,56.52
2018-09-04T10:41:59.181Z,55.90
2018-09-04T10:42:59.169Z,55.50
2018-09-04T10:43:59.156Z,55.30
2018-09-04T10:44:59.122Z,55.27
2018-09-04T10:45:59.112Z,54.97
2018-09-04T10:46:59.099Z,55.08
2018-09-04T10:47:59.090Z,54.80
2018-09-04T10:48:59.557Z,54.31
2018-09-04T10:49:59.067Z,54.50
2018-09-04T10:50:59.055Z,54.31
2018-09-04T10:51:59.045Z,55.10
2018-09-04T10:52:59.033Z,54.50
2018-09-04T10:53:59.045Z,54.97
2018-09-04T10:54:59.012Z,54.68
2018-09-04T10:55:58.998Z,54.88
2018-09-04T10:56:58.994Z,54.68
2018-09-04T10:57:59.070Z,54.35
2018-09-04T10:58:58.990Z,54.63
2018-09-04T10:59:58.955Z,53.06
2018-09-04T11:00:59.017Z,53.23
2018-09-04T11:01:58.933Z,53.14
2018-09-04T11:02:58.926Z,53.33
2018-09-04T11:03:58.951Z,52.74
2018-09-04T11:04:58.900Z,52.76
2018-09-04T11:05:58.893Z,53.36
2018-09-04T11:06:58.876Z,53.14
2018-09-04T11:07:58.864Z,53.23
2018-09-04T11:08:58.888Z,52.84
2018-09-04T11:09:58.951Z,52.74
2018-09-04T11:10:58.831Z,52.81
2018-09-04T11:11:58.821Z,52.42
2018-09-04T11:12:58.809Z,52.31
2018-09-04T11:13:58.820Z,52.49
2018-09-04T11:14:58.787Z,52.31
2018-09-04T11:15:58.774Z,52.19
2018-09-04T11:16:58.764Z,52.09
2018-09-04T11:17:58.752Z,51.79
2018-09-04T11:18:58.765Z,50.90
2018-09-04T11:19:58.730Z,52.00
2018-09-04T11:20:58.718Z,51.79
2018-09-04T11:21:58.707Z,51.60
2018-09-04T11:22:58.696Z,52.09
2018-09-04T11:23:58.713Z,51.70
2018-09-04T11:24:58.673Z,51.60
2018-09-04T11:25:58.665Z,51.30
2018-09-04T11:26:58.651Z,51.40
2018-09-04T11:27:58.641Z,50.40
2018-09-04T11:28:58.653Z,51.40
2018-09-04T11:29:58.618Z,51.70
2018-09-04T11:30:58.607Z,52.00
2018-09-04T11:31:58.595Z,51.70
2018-09-04T11:32:58.589Z,51.10
2018-09-04T11:33:58.601Z,50.90
2018-09-04T11:34:58.562Z,50.90
2018-09-04T11:35:58.550Z,51.10
2018-09-04T11:36:58.539Z,50.81
2018-09-04T11:37:58.530Z,50.70
2018-09-04T11:38:58.540Z,50.81
2018-09-04T11:39:58.506Z,50.70
2018-09-04T11:40:58.495Z,50.60
2018-09-04T11:41:58.485Z,50.60
2018-09-04T11:42:58.472Z,50.70
2018-09-04T11:43:58.484Z,50.51
2018-09-04T11:44:58.450Z,51.20
2018-09-04T11:45:58.440Z,50.31
2018-09-04T11:46:58.541Z,50.70
2018-09-04T11:47:58.415Z,51.20
2018-09-04T11:48:58.429Z,50.38
2018-09-04T11:49:58.395Z,50.38
2018-09-04T11:50:58.382Z,50.38
2018-09-04T11:51:58.371Z,50.26
2018-09-04T11:52:58.365Z,49.69
2018-09-04T11:53:58.352Z,49.37
2018-09-04T11:54:58.362Z,50.09
2018-09-04T11:55:58.328Z,49.46
2018-09-04T11:56:58.319Z,49.66
2018-09-04T11:57:58.306Z,49.34
2018-09-04T11:58:58.296Z,49.37
2018-09-04T11:59:58.310Z,49.37
2018-09-04T12:00:58.275Z,49.34
2018-09-04T12:01:58.265Z,49.44
2018-09-04T12:02:58.254Z,48.25
2018-09-04T12:03:58.243Z,48.45
2018-09-04T12:04:58.253Z,48.35
2018-09-04T12:05:58.220Z,48.13
2018-09-04T12:06:58.209Z,48.03
2018-09-04T12:07:58.198Z,47.71
2018-09-04T12:08:58.212Z,47.81
2018-09-04T12:09:58.175Z,47.22
2018-09-04T12:10:58.165Z,46.33
2018-09-04T12:11:58.155Z,47.12
2018-09-04T12:12:58.174Z,47.31
2018-09-04T12:13:58.169Z,47.02
2018-09-04T12:14:58.122Z,47.41
2018-09-04T12:15:58.109Z,46.92
2018-09-04T12:16:58.099Z,47.61
2018-09-04T12:17:58.091Z,47.09
2018-09-04T12:18:58.143Z,46.89
2018-09-04T12:19:58.087Z,47.19
2018-09-04T12:20:58.190Z,46.40
2018-09-04T12:21:58.041Z,46.01
2018-09-04T12:22:58.032Z,46.50
2018-09-04T12:23:58.018Z,46.58
2018-09-04T12:24:58.032Z,46.40
2018-09-04T12:25:57.995Z,46.48
2018-09-04T12:26:57.984Z,46.08
2018-09-04T12:27:57.974Z,45.89
2018-09-04T12:28:57.962Z,46.30
2018-09-04T12:29:57.973Z,46.58
2018-09-04T12:30:57.939Z,46.18
2018-09-04T12:31:57.930Z,45.98
2018-09-04T12:32:57.916Z,46.08
2018-09-04T12:33:57.941Z,45.98
2018-09-04T12:34:57.919Z,45.67
2018-09-04T12:35:57.888Z,45.98
2018-09-04T12:36:57.871Z,45.71
2018-09-04T12:37:57.858Z,45.79
2018-09-04T12:38:57.847Z,46.08
2018-09-04T12:39:57.859Z,45.89
2018-09-04T12:40:57.824Z,45.89
2018-09-04T12:41:57.814Z,45.98
2018-09-04T12:42:57.805Z,45.98
2018-09-04T12:43:57.791Z,45.57
2018-09-04T12:44:57.803Z,45.47
2018-09-04T12:45:57.771Z,45.64
2018-09-04T12:46:57.760Z,45.15
2018-09-04T12:47:57.776Z,44.85
2018-09-04T12:48:57.736Z,45.15
2018-09-04T12:49:57.748Z,44.95
2018-09-04T12:50:57.716Z,44.24
2018-09-04T12:51:57.705Z,44.04
2018-09-04T12:52:57.694Z,44.81
2018-09-04T12:53:57.693Z,43.43
2018-09-04T12:54:57.698Z,43.51